Time;durP1;ratioP1;P1;durP2;ratioP2;P2;SDS_P1;SDS_P2;PMS_P1;PMS_P2;Temp;Humidity;BMP_temperature;BMP_pressure;BME280_temperature;BME280_humidity;BME280_pressure;Samples;Min_cycle;Max_cycle;Signal;HPM_P1;HPM_P2
2023/09/03 00:02:20;;;;;;;6.88;5.28;;;;;;;22.78;70.92;100094.75;4884853;29;20052;-90
2023/09/03 00:05:05;;;;;;;8.55;4.80;;;;;;;22.83;70.64;100089.44;4882189;29;20120;-89
2023/09/03 00:07:50;;;;;;;6.97;4.53;;;;;;;22.94;70.78;100106.41;4894337;29;20098;-89
2023/09/03 00:10:37;;;;;;;6.95;4.68;;;;;;;22.94;70.73;100098.38;4898143;29;20048;-89
2023/09/03 00:13:21;;;;;;;7.80;4.85;;;;;;;23.03;70.91;100103.31;4902895;29;20047;-89
2023/09/03 00:16:05;;;;;;;6.97;5.03;;;;;;;23.07;70.53;100099.06;4875539;29;20044;-89
2023/09/03 00:18:50;;;;;;;5.32;4.40;;;;;;;22.93;70.90;100104.81;4882502;29;20568;-89
2023/09/03 00:21:34;;;;;;;9.13;4.63;;;;;;;23.13;70.72;100106.09;4884764;29;20063;-90
2023/09/03 00:24:18;;;;;;;9.35;5.40;;;;;;;23.20;70.62;100092.50;4889473;29;20120;-90
2023/09/03 00:27:02;;;;;;;8.60;5.25;;;;;;;23.15;70.41;100093.25;4903577;29;20072;-89
2023/09/03 00:29:47;;;;;;;5.15;4.65;;;;;;;23.19;70.50;100099.75;4904525;29;20047;-90
2023/09/03 00:32:30;;;;;;;8.02;4.88;;;;;;;23.18;70.89;100095.41;4897699;29;20032;-89
2023/09/03 00:35:14;;;;;;;4.93;4.43;;;;;;;23.36;70.33;100094.28;4893487;29;20119;-90
2023/09/03 00:37:58;;;;;;;7.35;4.80;;;;;;;23.30;70.69;100105.22;4890422;29;20052;-89
2023/09/03 00:40:42;;;;;;;10.57;5.07;;;;;;;23.24;71.08;100099.78;4888098;29;20081;-90
2023/09/03 00:43:27;;;;;;;11.05;5.10;;;;;;;23.15;71.43;100095.94;4894956;29;20076;-89
2023/09/03 00:46:11;;;;;;;6.00;4.43;;;;;;;23.19;71.21;100093.56;4906200;29;20039;-89
2023/09/03 00:48:57;;;;;;;6.97;5.10;;;;;;;23.25;70.83;100080.00;4901123;29;20052;-90
2023/09/03 00:51:43;;;;;;;5.97;4.82;;;;;;;23.16;71.37;100083.34;4893831;29;20082;-89
2023/09/03 00:54:28;;;;;;;11.38;5.30;;;;;;;23.08;71.52;100087.28;4906999;29;20073;-90
2023/09/03 00:57:12;;;;;;;6.32;4.90;;;;;;;23.10;71.97;100087.84;4889427;29;20056;-89
2023/09/03 00:59:57;;;;;;;8.05;5.72;;;;;;;23.05;71.85;100069.06;4890775;29;20131;-89
2023/09/03 01:02:44;;;;;;;7.15;5.47;;;;;;;22.87;72.08;100071.03;4883557;29;20048;-89
2023/09/03 01:05:28;;;;;;;9.18;5.00;;;;;;;23.01;71.92;100065.28;4889920;29;20056;-89
2023/09/03 01:08:12;;;;;;;9.98;6.05;;;;;;;23.05;71.78;100063.72;4867594;29;20583;-90
2023/09/03 01:11:12;;;;;;;9.60;5.95;;;;;;;23.15;71.63;100077.19;4878946;29;20538;-90
2023/09/03 01:14:18;;;;;;;7.40;5.45;;;;;;;23.08;71.75;100079.25;4896485;29;20039;-90
2023/09/03 01:17:16;;;;;;;9.65;6.30;;;;;;;22.89;72.36;100089.50;4907566;29;20056;-90
2023/09/03 01:20:12;;;;;;;7.97;6.30;;;;;;;23.02;72.22;100085.63;4906959;29;20109;-90
2023/09/03 01:23:17;;;;;;;9.20;7.05;;;;;;;23.16;71.81;100076.13;4905624;29;20435;-90
2023/09/03 01:26:15;;;;;;;9.05;6.15;;;;;;;23.19;71.60;100072.97;4906542;29;20468;-89
2023/09/03 01:29:00;;;;;;;10.50;6.25;;;;;;;23.02;71.81;100070.38;4907290;29;20506;-89
2023/09/03 01:31:44;;;;;;;11.57;7.00;;;;;;;23.05;72.16;100072.53;4904507;29;20055;-89
2023/09/03 01:34:29;;;;;;;10.57;6.38;;;;;;;23.07;71.84;100073.09;4893456;29;20039;-88
2023/09/03 01:37:14;;;;;;;9.80;6.70;;;;;;;22.98;72.00;100082.63;4891303;29;20590;-90
2023/09/03 01:39:59;;;;;;;8.77;5.80;;;;;;;22.72;73.29;100092.25;4893844;29;20053;-89
2023/09/03 01:42:43;;;;;;;9.80;6.53;;;;;;;22.84;72.80;100087.59;4899301;29;20514;-91
2023/09/03 01:45:37;;;;;;;9.80;6.20;;;;;;;22.83;72.99;100091.31;4907661;29;20108;-90
2023/09/03 01:48:37;;;;;;;;;;;;;;;23.05;72.86;100095.84;4894781;29;20051;-89
2023/09/03 01:51:40;;;;;;;11.02;6.22;;;;;;;22.93;72.91;100096.78;4890330;29;20006;-89
2023/09/03 01:54:30;;;;;;;11.05;6.15;;;;;;;22.83;73.33;100080.63;4887116;29;20061;-88
2023/09/03 01:57:33;;;;;;;9.60;6.55;;;;;;;22.87;73.62;100091.59;4887012;29;20055;-89
2023/09/03 02:00:18;;;;;;;10.40;6.88;;;;;;;22.83;73.56;100080.63;4892377;29;20077;-89
2023/09/03 02:03:04;;;;;;;9.27;6.13;;;;;;;22.95;73.40;100104.56;4891903;29;20068;-89
2023/09/03 02:05:48;;;;;;;8.10;6.18;;;;;;;22.97;73.34;100091.75;4900217;29;20459;-89
2023/09/03 02:08:32;;;;;;;9.27;5.93;;;;;;;23.06;72.86;100097.44;4893066;29;20064;-89
2023/09/03 02:11:16;;;;;;;9.15;6.43;;;;;;;22.79;73.19;100088.31;4887072;29;20115;-89
2023/09/03 02:14:00;;;;;;;8.80;6.32;;;;;;;22.60;74.11;100082.50;4884983;29;20056;-89
2023/09/03 02:16:44;;;;;;;9.73;7.00;;;;;;;22.50;74.40;100093.06;4884186;29;20056;-90
2023/09/03 02:19:28;;;;;;;8.45;5.85;;;;;;;22.57;73.79;100082.19;4884378;29;20060;-89
2023/09/03 02:22:12;;;;;;;7.13;6.38;;;;;;;22.51;74.07;100087.47;4884680;29;20052;-90
2023/09/03 02:24:55;;;;;;;10.30;5.95;;;;;;;22.36;74.46;100087.25;4885431;29;20101;-90
2023/09/03 02:27:40;;;;;;;9.77;5.95;;;;;;;22.32;74.44;100086.13;4894272;29;20096;-89
2023/09/03 02:30:24;;;;;;;9.07;6.68;;;;;;;22.16;74.97;100074.38;4892730;29;20403;-90
2023/09/03 02:33:07;;;;;;;9.80;6.38;;;;;;;22.02;75.24;100076.59;4896120;29;20487;-90
2023/09/03 02:35:51;;;;;;;9.35;6.32;;;;;;;22.01;75.33;100085.69;4886862;29;20060;-89
2023/09/03 02:38:35;;;;;;;8.68;6.32;;;;;;;21.91;75.78;100081.81;4893874;29;20047;-90
2023/09/03 02:41:20;;;;;;;8.52;6.50;;;;;;;21.79;75.75;100073.84;4887428;29;20510;-89
2023/09/03 02:44:06;;;;;;;8.45;6.25;;;;;;;21.80;76.23;100077.34;4896901;29;20044;-89
2023/09/03 02:46:52;;;;;;;10.05;6.38;;;;;;;21.72;76.49;100086.59;4898454;29;20055;-89
2023/09/03 02:49:36;;;;;;;8.45;6.45;;;;;;;21.76;76.34;100085.03;4898353;29;20487;-89
2023/09/03 02:52:20;;;;;;;10.15;6.40;;;;;;;21.81;76.60;100085.13;4888542;29;20084;-88
2023/09/03 02:55:04;;;;;;;10.82;6.80;;;;;;;22.08;76.25;100087.13;4884678;29;20048;-88
2023/09/03 02:57:48;;;;;;;12.75;7.35;;;;;;;22.08;76.13;100086.31;4892644;29;20051;-87
2023/09/03 03:00:33;;;;;;;9.20;7.05;;;;;;;22.13;75.91;100080.22;4889906;29;20052;-89
2023/09/03 03:03:18;;;;;;;9.57;6.30;;;;;;;22.13;76.28;100096.28;4897073;29;20068;-89
2023/09/03 03:06:02;;;;;;;7.53;6.32;;;;;;;22.19;76.05;100092.59;4890340;29;20043;-88
2023/09/03 03:08:46;;;;;;;8.80;6.38;;;;;;;22.21;75.94;100090.53;4897429;29;20051;-88
2023/09/03 03:11:30;;;;;;;8.40;6.18;;;;;;;21.98;76.58;100089.63;4901691;29;20051;-87
2023/09/03 03:14:14;;;;;;;9.90;6.78;;;;;;;22.18;75.88;100080.28;4884651;29;20044;-89
2023/09/03 03:16:58;;;;;;;11.63;6.78;;;;;;;22.06;76.27;100081.22;4901751;29;20051;-89
2023/09/03 03:19:42;;;;;;;12.18;8.13;;;;;;;21.93;76.59;100073.53;4904338;29;20100;-89
2023/09/03 03:22:26;;;;;;;11.20;7.05;;;;;;;21.88;76.87;100084.16;4905289;29;20047;-88
2023/09/03 03:25:10;;;;;;;10.02;7.85;;;;;;;21.83;77.29;100087.53;4905210;29;20108;-89
2023/09/03 03:27:54;;;;;;;12.90;7.85;;;;;;;21.92;76.95;100072.75;4897094;29;20060;-89
2023/09/03 03:30:38;;;;;;;9.18;7.68;;;;;;;21.94;76.95;100086.66;4886056;29;20051;-89
2023/09/03 03:33:22;;;;;;;10.95;7.38;;;;;;;21.88;77.01;100089.50;4886777;29;20109;-89
2023/09/03 03:36:07;;;;;;;11.27;8.02;;;;;;;21.50;78.13;100076.59;4886707;29;20105;-89
2023/09/03 03:38:51;;;;;;;12.60;7.63;;;;;;;21.79;77.79;100079.19;4886762;29;20097;-89
2023/09/03 03:41:37;;;;;;;12.43;8.10;;;;;;;21.84;77.47;100083.81;4890949;29;20055;-90
2023/09/03 03:44:21;;;;;;;11.80;7.65;;;;;;;21.68;77.87;100072.88;4909687;29;20089;-89
2023/09/03 03:47:05;;;;;;;11.00;7.75;;;;;;;21.88;77.41;100084.16;4890564;29;20076;-89
2023/09/03 03:49:49;;;;;;;11.13;7.90;;;;;;;21.96;77.31;100086.41;4894909;29;20130;-89
2023/09/03 03:52:33;;;;;;;15.45;8.35;;;;;;;21.91;77.48;100083.66;4895199;29;20133;-89
2023/09/03 03:55:17;;;;;;;12.82;8.25;;;;;;;21.82;77.72;100081.41;4900758;29;20564;-88
2023/09/03 03:58:01;;;;;;;14.25;7.82;;;;;;;21.82;77.77;100081.41;4895960;29;20058;-88
2023/09/03 04:00:45;;;;;;;12.77;8.05;;;;;;;21.69;78.38;100076.38;4887946;29;20044;-88
2023/09/03 04:03:29;;;;;;;14.68;7.93;;;;;;;21.64;77.95;100073.59;4892447;29;20048;-89
2023/09/03 04:06:13;;;;;;;14.77;7.95;;;;;;;21.66;78.00;100080.34;4897566;29;20113;-89
2023/09/03 04:08:57;;;;;;;16.25;9.15;;;;;;;21.66;78.66;100080.34;4896109;29;20050;-89
2023/09/03 04:11:41;;;;;;;11.75;7.78;;;;;;;21.55;78.44;100074.00;4899981;29;20461;-89
2023/09/03 04:14:25;;;;;;;18.20;8.27;;;;;;;21.48;78.71;100077.88;4900180;29;20051;-89
2023/09/03 04:17:09;;;;;;;14.27;8.52;;;;;;;21.49;78.67;100080.31;4895906;29;20184;-89
2023/09/03 04:19:53;;;;;;;;;;;;;;;21.52;78.96;100093.19;4892090;29;20510;-88
2023/09/03 04:22:38;;;;;;;13.93;8.50;;;;;;;21.36;78.87;100081.44;4892374;29;20405;-88
2023/09/03 04:25:22;;;;;;;10.10;7.93;;;;;;;21.29;79.12;100079.97;4887147;29;20052;-87
2023/09/03 04:28:06;;;;;;;13.68;8.93;;;;;;;21.29;79.74;100085.31;4899761;29;20051;-87
2023/09/03 04:30:55;;;;;;;12.63;8.55;;;;;;;21.37;78.82;100087.56;4875042;29;20097;-87
2023/09/03 04:33:39;;;;;;;15.43;9.18;;;;;;;21.14;79.52;100078.63;4891439;29;20044;-87
2023/09/03 04:36:23;;;;;;;13.35;9.45;;;;;;;21.26;79.62;100082.06;4896404;29;20052;-88
2023/09/03 04:39:08;;;;;;;13.50;9.63;;;;;;;21.52;79.04;100069.13;4891906;29;20443;-89
2023/09/03 04:41:52;;;;;;;13.27;9.30;;;;;;;21.23;79.68;100074.53;4892868;29;20510;-89
2023/09/03 04:44:39;;;;;;;12.98;10.18;;;;;;;21.24;79.67;100064.66;4888604;29;20054;-90
2023/09/03 04:47:24;;;;;;;16.42;9.82;;;;;;;21.32;79.71;100068.78;4894423;29;20109;-89
2023/09/03 04:50:08;;;;;;;12.70;9.55;;;;;;;21.31;79.79;100067.19;4889259;29;20044;-89
2023/09/03 04:52:55;;;;;;;12.60;9.43;;;;;;;21.28;79.75;100073.78;4907469;29;20109;-90
2023/09/03 04:55:40;;;;;;;11.27;8.20;;;;;;;21.21;79.76;100084.63;4912740;29;20479;-90
2023/09/03 04:58:25;;;;;;;11.93;8.73;;;;;;;21.37;78.83;100074.22;4900825;29;20124;-90
2023/09/03 05:01:16;;;;;;;11.15;9.07;;;;;;;21.63;78.58;100080.81;4909353;29;20079;-90
2023/09/03 05:04:03;;;;;;;18.02;11.10;;;;;;;21.23;79.28;100079.88;4895994;29;20047;-90
2023/09/03 05:06:47;;;;;;;20.05;10.25;;;;;;;21.04;79.85;100075.78;4890956;29;20157;-91
2023/09/03 05:09:31;;;;;;;17.50;10.55;;;;;;;21.22;80.00;100072.91;4895261;29;20065;-89
2023/09/03 05:12:15;;;;;;;12.98;9.40;;;;;;;21.25;79.72;100079.63;4890319;29;20092;-90
2023/09/03 05:14:59;;;;;;;11.75;8.80;;;;;;;21.23;79.46;100087.88;4888266;29;20048;-90
2023/09/03 05:17:43;;;;;;;15.02;10.48;;;;;;;21.08;79.81;100079.59;4892354;29;20128;-90
2023/09/03 05:20:27;;;;;;;14.63;9.90;;;;;;;21.17;79.86;100075.47;4900149;29;20421;-90
2023/09/03 05:23:11;;;;;;;14.07;9.48;;;;;;;21.07;79.64;100065.41;4894208;29;20073;-91
2023/09/03 05:25:55;;;;;;;14.50;10.05;;;;;;;21.08;79.85;100074.25;4902115;29;20108;-90
2023/09/03 05:28:39;;;;;;;12.85;9.70;;;;;;;21.00;79.86;100088.78;4889895;29;20048;-90
2023/09/03 05:31:23;;;;;;;14.43;10.10;;;;;;;20.93;80.22;100083.59;4900249;29;20044;-90
2023/09/03 05:34:07;;;;;;;11.65;10.15;;;;;;;20.87;80.54;100073.88;4897744;29;20407;-89
2023/09/03 05:36:51;;;;;;;14.18;9.73;;;;;;;20.79;80.39;100076.88;4888555;29;20118;-90
2023/09/03 05:39:35;;;;;;;;;;;;;;;20.90;80.43;100083.25;4896993;29;20136;-90
2023/09/03 05:42:21;;;;;;;20.38;10.73;;;;;;;20.75;80.93;100083.72;4896673;29;19922;-90
2023/09/03 05:45:05;;;;;;;19.40;10.90;;;;;;;20.78;81.41;100085.91;4901609;29;20140;-89
2023/09/03 05:47:50;;;;;;;13.70;11.15;;;;;;;20.86;81.49;100082.09;4902446;29;20055;-90
2023/09/03 05:50:34;;;;;;;19.63;12.55;;;;;;;20.91;81.13;100082.19;4892930;29;20109;-90
2023/09/03 05:53:18;;;;;;;16.23;10.73;;;;;;;20.94;81.13;100081.75;4895991;29;20043;-90
2023/09/03 05:56:07;;;;;;;14.43;10.07;;;;;;;20.92;81.29;100078.47;4902160;29;20054;-89
2023/09/03 05:58:51;;;;;;;15.38;10.57;;;;;;;20.94;81.43;100079.06;4902473;29;20101;-89
2023/09/03 06:01:36;;;;;;;14.65;10.90;;;;;;;21.08;81.45;100095.59;4905644;29;20055;-89
2023/09/03 06:04:20;;;;;;;17.90;11.00;;;;;;;21.19;81.06;100081.38;4905258;29;20055;-89
2023/09/03 06:07:06;;;;;;;13.18;10.13;;;;;;;21.13;81.68;100074.34;4910819;29;20052;-88
2023/09/03 06:09:50;;;;;;;15.27;10.55;;;;;;;21.25;81.30;100080.44;4890420;29;20044;-89
2023/09/03 06:12:34;;;;;;;15.40;11.48;;;;;;;21.33;81.17;100078.44;4879288;29;20117;-89
2023/09/03 06:15:18;;;;;;;13.20;10.48;;;;;;;21.54;80.56;100083.06;4893255;29;20043;-89
2023/09/03 06:18:02;;;;;;;17.05;11.02;;;;;;;21.72;80.63;100078.56;4896028;29;20194;-89
2023/09/03 06:20:47;;;;;;;16.25;11.23;;;;;;;21.82;80.16;100089.44;4883483;29;20055;-89
2023/09/03 06:23:31;;;;;;;13.07;10.35;;;;;;;22.01;79.75;100083.81;4885953;29;20040;-90
2023/09/03 06:26:15;;;;;;;13.80;10.30;;;;;;;22.24;79.98;100084.69;4893971;29;20132;-89
2023/09/03 06:28:59;;;;;;;14.38;10.60;;;;;;;22.34;79.73;100082.13;4894345;29;20786;-89
2023/09/03 06:31:43;;;;;;;12.27;9.55;;;;;;;22.53;79.26;100087.22;4893608;29;20181;-89
2023/09/03 06:34:27;;;;;;;15.60;10.77;;;;;;;22.61;79.06;100091.31;4889334;29;20051;-89
2023/09/03 06:37:11;;;;;;;14.30;11.27;;;;;;;22.75;78.67;100089.06;4895994;29;20047;-89
2023/09/03 06:39:55;;;;;;;13.10;10.55;;;;;;;22.87;78.22;100092.44;4887717;29;20075;-89
2023/09/03 06:42:39;;;;;;;13.38;10.30;;;;;;;22.95;77.73;100100.00;4901641;29;20509;-90
2023/09/03 06:45:23;;;;;;;11.27;9.80;;;;;;;23.14;77.42;100110.38;4902907;29;20046;-90
2023/09/03 06:48:08;;;;;;;15.55;10.75;;;;;;;23.31;76.93;100101.47;4892876;29;20119;-88
2023/09/03 06:50:53;;;;;;;10.90;9.70;;;;;;;23.53;76.64;100099.53;4897751;29;20052;-88
2023/09/03 06:53:37;;;;;;;12.02;9.85;;;;;;;23.58;76.29;100119.38;4915862;29;20055;-90
2023/09/03 06:56:21;;;;;;;15.85;10.00;;;;;;;23.64;76.01;100110.34;4915094;29;20051;-91
2023/09/03 06:59:06;;;;;;;13.40;10.65;;;;;;;23.77;75.15;100115.25;4893269;29;20052;-90
2023/09/03 07:01:50;;;;;;;17.13;13.45;;;;;;;23.80;75.12;100122.81;4890707;29;20072;-89
2023/09/03 07:04:35;;;;;;;17.33;13.68;;;;;;;23.75;75.50;100122.75;4895367;29;20399;-90
2023/09/03 07:07:19;;;;;;;16.55;13.50;;;;;;;23.82;75.36;100127.91;4897261;29;20043;-91
2023/09/03 07:10:03;;;;;;;20.33;14.70;;;;;;;23.88;75.25;100126.91;4902269;29;20051;-89
2023/09/03 07:12:48;;;;;;;18.02;14.70;;;;;;;23.85;75.42;100126.59;4894509;29;20109;-89
2023/09/03 07:15:35;;;;;;;15.55;11.68;;;;;;;23.91;75.29;100131.75;4891307;29;20053;-90
2023/09/03 07:18:20;;;;;;;16.52;10.55;;;;;;;24.02;75.73;100137.19;4892251;29;20114;-90
2023/09/03 07:21:06;;;;;;;16.42;11.38;;;;;;;24.04;75.67;100135.88;4893373;29;20043;-89
2023/09/03 07:23:51;;;;;;;10.07;8.32;;;;;;;24.12;75.96;100136.47;4898527;29;20093;-90
2023/09/03 07:26:36;;;;;;;15.23;10.60;;;;;;;24.46;75.10;100130.75;4899852;29;20113;-91
2023/09/03 07:29:20;;;;;;;13.73;9.95;;;;;;;24.64;75.05;100137.53;4897335;29;20440;-90
2023/09/03 07:32:04;;;;;;;10.80;9.02;;;;;;;24.23;75.51;100127.41;4892217;29;20423;-90
2023/09/03 07:34:53;;;;;;;10.07;8.52;;;;;;;24.26;76.05;100143.00;4890802;29;20055;-90
2023/09/03 07:37:37;;;;;;;10.82;8.27;;;;;;;24.18;76.09;100138.13;4890839;29;20048;-88
2023/09/03 07:40:21;;;;;;;;;;;;;;;24.10;76.41;100134.84;4899588;29;20124;-90
2023/09/03 07:43:05;;;;;;;12.32;9.57;;;;;;;23.96;74.86;100130.94;4895750;29;19923;-90
2023/09/03 07:45:52;;;;;;;14.82;9.45;;;;;;;24.31;74.41;100137.66;4902369;29;20047;-89
2023/09/03 07:48:36;;;;;;;13.27;9.50;;;;;;;24.21;74.59;100140.28;4897282;29;20555;-88
2023/09/03 07:51:21;;;;;;;12.73;9.00;;;;;;;24.14;73.70;100140.50;4901915;29;20072;-89
2023/09/03 07:54:05;;;;;;;11.65;8.50;;;;;;;24.42;73.57;100146.56;4895338;29;20515;-88
2023/09/03 07:56:53;;;;;;;8.70;7.32;;;;;;;24.93;72.48;100140.66;4895469;29;20080;-88
2023/09/03 07:59:38;;;;;;;11.25;8.40;;;;;;;24.59;72.92;100154.47;4879320;29;20143;-88
2023/09/03 08:02:23;;;;;;;9.23;8.25;;;;;;;24.60;73.00;100158.75;4884089;29;20052;-86
2023/09/03 08:05:11;;;;;;;12.55;7.63;;;;;;;24.72;72.70;100165.78;4886237;29;20124;-87
2023/09/03 08:07:55;;;;;;;12.32;8.95;;;;;;;24.59;73.13;100162.50;4886052;29;20148;-86
2023/09/03 08:10:39;;;;;;;10.40;8.18;;;;;;;25.21;71.63;100160.09;4884721;29;20179;-84
2023/09/03 08:13:23;;;;;;;10.43;8.77;;;;;;;24.87;71.92;100160.50;4886272;29;20052;-84
2023/09/03 08:16:08;;;;;;;13.45;8.70;;;;;;;24.82;72.21;100149.75;4885123;29;20116;-85
2023/09/03 08:18:52;;;;;;;14.68;10.63;;;;;;;24.66;72.61;100163.06;4885551;29;20048;-88
2023/09/03 08:21:36;;;;;;;12.45;9.38;;;;;;;24.65;72.35;100156.09;4885291;29;20051;-87
2023/09/03 08:24:20;;;;;;;10.48;8.70;;;;;;;24.60;71.99;100160.63;4886387;29;20412;-87
2023/09/03 08:27:04;;;;;;;14.70;9.23;;;;;;;24.54;72.21;100167.81;4886602;29;20063;-85
2023/09/03 08:29:49;;;;;;;10.23;8.57;;;;;;;24.66;71.97;100183.72;4887227;29;20179;-89
2023/09/03 08:32:35;;;;;;;10.80;8.43;;;;;;;24.68;71.79;100177.03;4890356;29;20051;-87
2023/09/03 08:35:19;;;;;;;13.00;8.60;;;;;;;24.68;71.90;100168.19;4887706;29;20105;-86
2023/09/03 08:38:04;;;;;;;12.13;9.73;;;;;;;24.51;72.00;100171.03;4883741;29;20535;-86
2023/09/03 08:40:48;;;;;;;11.38;8.48;;;;;;;24.56;72.06;100172.94;4887884;29;20768;-85
2023/09/03 08:43:32;;;;;;;11.38;9.00;;;;;;;24.98;71.85;100180.16;4888086;29;20568;-87
2023/09/03 08:46:19;;;;;;;14.85;8.48;;;;;;;24.88;71.79;100188.19;4890557;29;20056;-84
2023/09/03 08:49:04;;;;;;;10.77;9.40;;;;;;;24.94;71.83;100185.22;4887452;29;20104;-84
2023/09/03 08:51:49;;;;;;;11.30;8.85;;;;;;;24.98;71.55;100185.53;4885545;29;20048;-88
2023/09/03 08:54:33;;;;;;;10.60;8.32;;;;;;;25.35;71.45;100192.63;4882896;29;20040;-81
2023/09/03 08:57:17;;;;;;;10.27;8.18;;;;;;;25.08;71.13;100195.50;4886484;29;20071;-81
2023/09/03 09:00:11;;;;;;;11.77;8.77;;;;;;;25.48;71.17;100193.22;4884673;29;20559;-82
2023/09/03 09:03:00;;;;;;;10.50;9.15;;;;;;;25.51;70.80;100188.09;4884632;29;20116;-81
2023/09/03 09:05:47;;;;;;;13.63;8.40;;;;;;;25.59;71.10;100196.75;4889192;29;20060;-81
2023/09/03 09:08:31;;;;;;;13.45;7.70;;;;;;;25.86;70.42;100201.06;4887891;29;20569;-82
2023/09/03 09:11:18;;;;;;;10.82;7.55;;;;;;;25.99;69.80;100208.59;4888120;29;20100;-81
2023/09/03 09:14:07;;;;;;;11.30;6.68;;;;;;;26.18;69.88;100194.63;4889451;29;20534;-81
2023/09/03 09:16:51;;;;;;;9.50;7.30;;;;;;;25.84;69.48;100200.50;4885326;29;20108;-81
2023/09/03 09:19:35;;;;;;;10.60;7.35;;;;;;;25.95;69.66;100210.22;4884286;29;20517;-81
2023/09/03 09:22:20;;;;;;;8.85;6.75;;;;;;;26.07;69.52;100210.72;4884414;29;20055;-81
2023/09/03 09:25:04;;;;;;;8.50;7.35;;;;;;;26.32;69.22;100209.13;4883544;29;20048;-81
2023/09/03 09:27:49;;;;;;;9.30;7.28;;;;;;;26.32;69.06;100217.19;4888992;29;20072;-81
2023/09/03 09:30:34;;;;;;;8.57;7.22;;;;;;;26.25;68.69;100213.97;4883797;29;20044;-81
2023/09/03 09:33:17;;;;;;;9.68;8.10;;;;;;;26.30;68.37;100223.94;4887967;29;20071;-81
2023/09/03 09:36:11;;;;;;;7.78;6.97;;;;;;;26.68;68.30;100216.34;4885310;29;20103;-81
2023/09/03 09:39:06;;;;;;;11.15;7.57;;;;;;;26.58;67.79;100225.25;4890377;29;20128;-81
2023/09/03 09:42:06;;;;;;;11.25;7.00;;;;;;;26.87;67.85;100221.94;4890977;29;20193;-80
2023/09/03 09:44:50;;;;;;;12.20;7.60;;;;;;;26.90;68.59;100220.59;4890374;29;20040;-81
2023/09/03 09:47:34;;;;;;;10.70;7.60;;;;;;;26.84;68.04;100227.06;4894321;29;20081;-81
2023/09/03 09:50:31;;;;;;;9.65;7.78;;;;;;;26.91;67.81;100227.59;4890145;29;20050;-81
2023/09/03 09:53:20;;;;;;;10.93;7.68;;;;;;;27.04;67.78;100221.63;4885370;29;20593;-81
2023/09/03 09:56:11;;;;;;;16.13;9.20;;;;;;;26.60;68.05;100223.09;4892059;29;20056;-81
2023/09/03 09:58:59;;;;;;;10.85;8.50;;;;;;;27.05;67.79;100227.81;4886870;29;20059;-86
2023/09/03 10:01:46;;;;;;;8.95;7.88;;;;;;;26.94;67.74;100227.88;4890449;29;20062;-86
2023/09/03 10:04:30;;;;;;;11.52;7.40;;;;;;;27.21;68.13;100226.66;4891885;29;20092;-86
2023/09/03 10:07:15;;;;;;;8.75;7.63;;;;;;;27.17;67.81;100231.00;4893020;29;20047;-84
2023/09/03 10:10:01;;;;;;;11.95;8.23;;;;;;;26.87;67.81;100227.34;4889733;29;20132;-86
2023/09/03 10:12:45;;;;;;;11.50;8.43;;;;;;;27.09;67.54;100231.56;4890302;29;20039;-85
2023/09/03 10:15:30;;;;;;;8.88;7.97;;;;;;;26.96;67.99;100224.09;4890652;29;20132;-85
2023/09/03 10:18:17;;;;;;;9.65;7.68;;;;;;;27.36;66.94;100227.66;4889950;29;20043;-84
2023/09/03 10:21:05;;;;;;;10.68;7.00;;;;;;;27.62;67.11;100230.25;4890244;29;20052;-85
2023/09/03 10:23:51;;;;;;;8.20;6.78;;;;;;;27.67;67.08;100224.00;4889512;29;20100;-85
2023/09/03 10:26:42;;;;;;;10.15;6.70;;;;;;;27.92;66.61;100229.22;4891918;29;20056;-88
2023/09/03 10:29:29;;;;;;;7.68;6.90;;;;;;;27.30;67.10;100234.16;4898058;29;20572;-85
2023/09/03 10:32:15;;;;;;;7.10;6.40;;;;;;;27.46;66.49;100222.22;4894119;29;20128;-86
2023/09/03 10:35:08;;;;;;;10.45;6.60;;;;;;;27.41;66.51;100227.63;4888635;29;20119;-85
2023/09/03 10:37:53;;;;;;;8.45;6.55;;;;;;;27.19;66.16;100218.06;4893222;29;20587;-85
2023/09/03 10:40:37;;;;;;;7.82;6.80;;;;;;;27.30;65.91;100221.50;4889953;29;20108;-84
2023/09/03 10:43:22;;;;;;;8.20;5.90;;;;;;;27.60;65.67;100221.63;4892122;29;20043;-87
2023/09/03 10:46:07;;;;;;;9.27;6.82;;;;;;;27.91;65.91;100226.81;4886031;29;20096;-87
2023/09/03 10:48:56;;;;;;;7.97;6.57;;;;;;;27.79;65.41;100222.56;4893263;29;20064;-87
2023/09/03 10:51:43;;;;;;;7.88;7.07;;;;;;;27.29;65.86;100233.38;4895216;29;20153;-87
2023/09/03 10:54:27;;;;;;;7.15;6.45;;;;;;;28.00;65.65;100224.28;4890232;29;20036;-88
2023/09/03 10:57:12;;;;;;;9.75;6.32;;;;;;;28.14;65.29;100225.25;4890172;29;20075;-87
2023/09/03 11:00:01;;;;;;;8.88;6.22;;;;;;;27.73;64.66;100226.41;4892379;29;20079;-90
2023/09/03 11:02:45;;;;;;;6.00;5.40;;;;;;;28.26;64.98;100227.59;4891348;29;20056;-89
2023/09/03 11:05:29;;;;;;;6.10;5.07;;;;;;;28.49;63.13;100222.50;4890623;29;20055;-89
2023/09/03 11:08:26;;;;;;;7.20;6.22;;;;;;;28.44;62.25;100227.97;4893063;29;20048;-90
2023/09/03 11:11:10;;;;;;;7.13;5.50;;;;;;;28.12;63.63;100232.03;4891990;29;20132;-88
2023/09/03 11:13:58;;;;;;;5.38;4.82;;;;;;;28.35;62.82;100231.31;4892751;29;20055;-89
2023/09/03 11:16:42;;;;;;;6.60;5.15;;;;;;;28.51;62.12;100240.06;4890578;29;20271;-89
2023/09/03 11:19:38;;;;;;;6.03;5.45;;;;;;;28.42;61.92;100235.56;4896973;29;20511;-89
2023/09/03 11:22:22;;;;;;;5.80;5.07;;;;;;;28.51;61.83;100239.25;4891441;29;20054;-91
2023/09/03 11:25:07;;;;;;;6.07;5.30;;;;;;;28.35;60.81;100239.41;4896570;29;20064;-88
2023/09/03 11:27:51;;;;;;;6.60;5.90;;;;;;;28.39;60.59;100231.53;4894661;29;20113;-87
2023/09/03 11:30:35;;;;;;;6.10;5.07;;;;;;;28.11;60.70;100225.03;4892491;29;20096;-89
2023/09/03 11:33:26;;;;;;;5.70;5.20;;;;;;;28.84;59.30;100225.16;4891331;29;20089;-89
2023/09/03 11:36:11;;;;;;;5.40;4.90;;;;;;;28.84;58.04;100225.94;4886988;29;20287;-90
2023/09/03 11:38:56;;;;;;;6.35;5.40;;;;;;;28.56;57.62;100223.00;4890947;29;20056;-89
2023/09/03 11:41:47;;;;;;;11.00;5.93;;;;;;;28.47;58.91;100222.81;4892301;29;20048;-89
2023/09/03 11:44:31;;;;;;;5.07;4.57;;;;;;;28.96;55.71;100222.03;4894947;29;20099;-89
2023/09/03 11:47:15;;;;;;;5.95;5.35;;;;;;;29.19;55.81;100221.19;4896132;29;20096;-91
2023/09/03 11:50:26;;;;;;;5.78;4.90;;;;;;;29.28;56.72;100210.53;4891932;29;20040;-90
2023/09/03 11:53:10;;;;;;;6.93;4.90;;;;;;;29.40;57.48;100209.28;4894671;29;20066;-90
2023/09/03 11:55:56;;;;;;;5.45;4.95;;;;;;;29.27;54.31;100211.63;4893230;29;20043;-91
2023/09/03 11:58:43;;;;;;;5.32;4.78;;;;;;;29.40;55.13;100204.69;4889324;29;20043;-90
2023/09/03 12:01:28;;;;;;;5.53;4.90;;;;;;;29.67;54.87;100208.63;4887247;29;20128;-91
2023/09/03 12:04:13;;;;;;;5.15;4.53;;;;;;;29.98;56.04;100208.13;4887807;29;20132;-87
2023/09/03 12:06:57;;;;;;;5.88;5.28;;;;;;;29.70;54.10;100208.06;4888382;29;20128;-87
2023/09/03 12:09:42;;;;;;;6.68;4.90;;;;;;;29.69;53.40;100209.16;4885802;29;20051;-87
2023/09/03 12:12:27;;;;;;;5.38;4.88;;;;;;;29.81;55.76;100211.41;4885846;29;20040;-86
2023/09/03 12:15:22;;;;;;;5.53;4.97;;;;;;;29.41;54.16;100200.09;4882508;29;20048;-82
2023/09/03 12:18:10;;;;;;;6.30;5.00;;;;;;;29.47;54.48;100202.44;4886504;29;20108;-88
2023/09/03 12:20:54;;;;;;;5.78;4.50;;;;;;;29.47;54.46;100199.72;4885165;29;20048;-85
2023/09/03 12:23:44;;;;;;;5.40;4.90;;;;;;;29.49;54.26;100202.97;4886244;29;20548;-85
2023/09/03 12:26:27;;;;;;;5.18;4.78;;;;;;;29.80;53.32;100196.25;4883420;29;20419;-86
2023/09/03 12:29:22;;;;;;;8.35;6.30;;;;;;;29.87;53.94;100196.69;4883269;29;20117;-84
2023/09/03 12:32:08;;;;;;;5.18;4.70;;;;;;;30.00;53.74;100184.28;4883942;29;20498;-87
2023/09/03 12:34:52;;;;;;;7.57;5.70;;;;;;;29.51;53.40;100183.72;4887557;29;20033;-86
2023/09/03 12:37:42;;;;;;;6.32;4.78;;;;;;;29.57;53.29;100187.16;4883757;29;20075;-84
2023/09/03 12:40:26;;;;;;;6.85;5.13;;;;;;;29.68;53.16;100183.22;4886217;29;20048;-84
2023/09/03 12:43:10;;;;;;;6.78;5.22;;;;;;;29.73;52.83;100193.94;4889041;29;20100;-83
2023/09/03 12:45:54;;;;;;;6.60;5.65;;;;;;;29.83;53.85;100189.44;4886315;29;20112;-84